MSSS - Ilopango Intl.
MSSS 042250Z 19009KT 160V240 CAVOK 27/20 Q1012 A2991
Observed:
Wind:
visibility:
Flight Rules:
Cloud Levels:
Temperature:
Humidity:
Pressure: